PDT,Max TemperatureF,Mean TemperatureF,Min TemperatureF,Max Dew PointF,MeanDew PointF,Min DewpointF,Max Humidity, Mean Humidity, Min Humidity, Max Sea Level PressureIn, Mean Sea Level PressureIn, Min Sea Level PressureIn, Max VisibilityMiles, Mean VisibilityMiles, Min VisibilityMiles, Max Wind SpeedMPH, Mean Wind SpeedMPH, Max Gust SpeedMPH,PrecipitationIn, CloudCover, Events, WindDirDegrees
2012-10-1,80,65,50,57,47,39,82,56,32,30.30,30.21,30.11,10,10,10,15,6,20,0.00,1,,323
2012-10-2,64,54,44,50,45,37,81,67,54,30.23,30.19,30.14,10,10,10,7,4,,0.00,5,,313
2012-10-3,69,55,41,37,36,30,81,53,23,30.32,30.25,30.18,10,10,7,14,5,20,0.00,0,,1
2012-10-4,71,53,35,37,34,30,87,56,25,30.24,30.21,30.17,10,10,5,10,2,17,0.00,0,,352
2012-10-5,75,55,35,36,31,23,87,53,14,30.25,30.20,30.14,10,10,4,13,2,21,0.00,0,,84
2012-10-6,75,54,32,37,31,28,87,53,19,30.22,30.15,30.07,10,10,2,10,1,,0.00,0,,331
2012-10-7,78,56,33,39,33,28,81,53,17,30.09,30.01,29.91,10,10,3,7,1,,0.00,0,,325
2012-10-8,66,50,35,46,39,30,93,68,43,30.08,29.99,29.94,10,10,5,8,1,,0.00,0,,312
2012-10-9,64,55,44,46,44,41,87,71,49,30.14,30.08,30.02,10,10,10,9,1,,0.00,4,,334
2012-10-10,57,50,42,48,44,39,93,83,67,30.06,30.01,29.96,10,8,1,7,1,,0.00,5,,340
2012-10-11,64,53,42,48,44,37,87,77,56,29.98,29.92,29.83,10,10,8,6,1,,0.00,5,,328
2012-10-12,55,50,48,50,47,45,93,82,76,30.07,29.96,29.87,10,8,2,14,5,20,0.53,8,,155
2012-10-13,60,58,55,55,53,48,88,84,77,30.20,30.16,30.08,10,10,7,15,9,22,0.26,8,,160
2012-10-14,62,60,57,57,55,54,94,82,77,30.15,30.03,29.93,10,10,5,15,8,23,0.38,7,,151
2012-10-15,64,60,55,61,57,54,94,88,77,29.97,29.83,29.66,10,9,3,15,6,25,0.50,8,,163
2012-10-16,60,53,44,55,46,43,93,74,52,30.31,30.09,29.70,10,10,1,9,3,17,0.05,6,,295
2012-10-17,59,50,42,46,43,39,93,79,55,30.33,30.27,30.20,10,9,0,8,1,,0.01,3,,336
2012-10-18,66,54,41,52,44,37,93,74,48,30.23,30.03,29.88,10,8,0,15,2,22,0.10,4,,163
2012-10-19,55,52,48,52,50,46,94,86,72,29.92,29.87,29.81,10,8,2,17,6,26,0.84,8,,158
2012-10-20,55,48,42,46,41,37,93,79,54,29.97,29.93,29.89,10,10,8,14,3,17,0.30,6,Thunderstorm,153
2012-10-21,53,48,44,43,40,37,93,76,58,29.91,29.86,29.75,10,10,2,14,6,16,0.09,6,,152
2012-10-22,48,44,41,43,40,37,93,83,76,29.74,29.63,29.58,10,10,7,12,2,17,0.21,8,,151
2012-10-23,51,48,44,41,39,37,81,75,62,29.87,29.82,29.70,10,10,6,14,8,22,0.21,7,,145
2012-10-24,51,48,44,45,40,39,82,77,62,30.18,29.98,29.86,10,10,7,16,6,21,0.10,8,,148
2012-10-25,53,47,41,43,41,37,87,79,62,30.42,30.35,30.19,10,10,2,10,4,,0.04,3,,160
2012-10-26,51,48,44,46,43,39,87,81,76,30.32,30.17,30.10,10,10,2,15,5,26,0.01,7,,147
2012-10-27,59,54,48,55,49,45,94,86,76,30.12,29.98,29.84,10,9,4,20,8,28,0.93,8,,150
2012-10-28,60,56,53,55,54,52,94,90,82,29.98,29.91,29.80,10,9,1,14,5,16,0.57,7,,156
2012-10-29,64,58,53,57,54,52,94,85,68,30.04,29.96,29.81,10,9,4,13,6,22,0.69,7,,176
2012-10-30,60,58,55,57,55,54,94,87,82,29.97,29.84,29.76,,,,15,8,21,0.46,8,,155
2012-10-31,59,56,53,55,53,48,94,87,77,29.77,29.69,29.65,10,10,7,16,7,25,0.82,8,,154